X  Cerrar Datos meteorológicos de aviación METAR     EHRD Rotterdam The Hague Airport
Temperatura
0°C Temperatura
0°C Punto de rocío
100% Humedad



Viento
3 KM/H
2 MPH
1 M/S
2 NUDO



Calma
Norte
Condiciones actuales

Niebla Niebla
Presión 1027.92 (hPa) - 30.35 (inHg)
Visibilidad 0.5 (milla) - 0.8 (km)
Aeropuerto
Código de aeropuerto EHRD

localidad: Rotterdam The Hague Airport
Distancia: 16 (km)

Metar:
EHRD 010625Z AUTO VRB02KT 0750 R06/0325D FG OVC044 00/00 Q1028 TEMPO 1200 BCFG

Hora: 01-12-2022 07:25 CET